Time;durP1;ratioP1;P1;durP2;ratioP2;P2;SDS_P1;SDS_P2;PMS_P1;PMS_P2;Temp;Humidity;BMP_temperature;BMP_pressure;BME280_temperature;BME280_humidity;BME280_pressure;Samples;Min_cycle;Max_cycle;Signal;HPM_P1;HPM_P2
2022/01/24 00:00:15;;;;;;;45.05;24.15;;;5.30;99.90;;;;;;5011474;28;20495;-47
2022/01/24 00:02:43;;;;;;;40.20;22.67;;;5.20;99.90;;;;;;5012552;28;20591;-47
2022/01/24 00:05:10;;;;;;;41.65;22.85;;;5.30;99.90;;;;;;5012552;28;20499;-47
2022/01/24 00:07:35;;;;;;;41.53;23.20;;;5.30;99.90;;;;;;5012416;28;20561;-47
2022/01/24 00:10:06;;;;;;;40.95;22.73;;;5.20;99.90;;;;;;5012637;28;20030;-47
2022/01/24 00:17:50;;;;;;;39.63;22.77;;;5.10;99.90;;;;;;5012779;28;20747;-46
2022/01/24 00:28:27;;;;;;;42.20;22.90;;;5.10;99.90;;;;;;5010723;28;20068;-47
2022/01/24 00:30:53;;;;;;;43.92;23.48;;;5.20;99.90;;;;;;5012115;28;20579;-47
2022/01/24 00:33:19;;;;;;;42.33;24.10;;;5.20;99.90;;;;;;5011852;28;20065;-48
2022/01/24 00:35:46;;;;;;;43.40;23.67;;;5.10;99.90;;;;;;5012024;28;20068;-48
2022/01/24 00:38:12;;;;;;;41.53;23.08;;;5.10;99.90;;;;;;5011803;28;20030;-47
2022/01/24 00:40:40;;;;;;;44.22;24.27;;;5.10;99.90;;;;;;5011600;28;20106;-48
2022/01/24 00:43:28;;;;;;;41.88;23.80;;;5.00;99.90;;;;;;5012013;28;20510;-47
2022/01/24 00:46:04;;;;;;;43.05;23.33;;;5.00;99.90;;;;;;5012052;28;20033;-47
2022/01/24 00:54:42;;;;;;;32.45;18.83;;;4.80;99.90;;;;;;5011842;28;20388;-47
2022/01/24 00:56:47;;;;;;;35.45;20.65;;;4.90;99.90;;;;;;5011484;28;20121;-47
2022/01/24 00:59:12;;;;;;;34.63;20.67;;;4.90;99.90;;;;;;5010834;28;20432;-47
2022/01/24 01:01:38;;;;;;;36.28;21.75;;;4.90;99.90;;;;;;5011081;28;20128;-47
2022/01/24 01:04:03;;;;;;;32.20;19.52;;;5.00;99.90;;;;;;5010865;28;20022;-47
2022/01/24 01:06:29;;;;;;;36.38;20.65;;;5.00;99.90;;;;;;5011180;28;20391;-47
2022/01/24 01:19:51;;;;;;;34.80;20.63;;;5.30;99.90;;;;;;5011204;28;20049;-47
2022/01/24 01:22:17;;;;;;;37.58;22.40;;;5.30;99.90;;;;;;5011095;28;20030;-48
2022/01/24 01:24:50;;;;;;;33.03;19.65;;;5.30;99.90;;;;;;5011672;28;20029;-48
2022/01/24 01:27:21;;;;;;;35.50;20.38;;;5.30;99.90;;;;;;5011438;28;20026;-48
2022/01/24 01:30:01;;;;;;;38.33;21.50;;;5.20;99.90;;;;;;5011052;28;20041;-47
2022/01/24 01:35:35;;;;;;;36.03;21.27;;;5.20;99.90;;;;;;5011793;28;20113;-47
2022/01/24 01:38:24;;;;;;;35.63;20.95;;;5.20;99.90;;;;;;5011133;28;20697;-47
2022/01/24 01:56:56;;;;;;;36.63;21.33;;;5.00;99.90;;;;;;5010505;28;20518;-47
2022/01/24 01:59:22;;;;;;;34.67;21.02;;;5.00;99.90;;;;;;5010855;28;20057;-47
2022/01/24 02:01:48;;;;;;;36.42;21.27;;;5.00;99.90;;;;;;5010894;28;20054;-47
2022/01/24 02:04:14;;;;;;;34.67;20.63;;;4.90;99.90;;;;;;5010676;28;20026;-47
2022/01/24 02:06:40;;;;;;;37.40;21.65;;;4.90;99.90;;;;;;5011392;28;20022;-47
2022/01/24 02:09:12;;;;;;;36.17;21.88;;;5.00;99.90;;;;;;5014131;28;20553;-48
2022/01/24 02:11:38;;;;;;;38.35;22.52;;;5.10;99.90;;;;;;5014949;28;20410;-47
2022/01/24 02:14:09;;;;;;;35.38;20.42;;;5.10;99.90;;;;;;5015115;28;20026;-47
2022/01/24 02:16:52;;;;;;;34.78;21.20;;;5.20;99.90;;;;;;5014853;28;20456;-48
2022/01/24 02:19:27;;;;;;;35.90;21.00;;;5.30;99.90;;;;;;5014331;28;20034;-47
2022/01/24 02:24:53;;;;;;;34.50;20.67;;;5.20;99.90;;;;;;5014229;28;20394;-47
2022/01/24 02:27:19;;;;;;;30.65;19.65;;;5.20;99.90;;;;;;5014099;28;20109;-47
2022/01/24 02:30:06;;;;;;;32.67;19.67;;;5.00;99.90;;;;;;5013546;28;20025;-47
2022/01/24 02:32:35;;;;;;;33.85;21.02;;;5.00;99.90;;;;;;5013316;28;20398;-47
2022/01/24 02:35:01;;;;;;;32.13;20.40;;;5.00;99.90;;;;;;5013751;28;20505;-48
2022/01/24 02:37:26;;;;;;;32.88;18.98;;;5.10;99.90;;;;;;5014444;28;20026;-47
2022/01/24 02:39:58;;;;;;;32.47;20.60;;;5.10;99.90;;;;;;5013908;28;20069;-47
2022/01/24 02:53:14;;;;;;;31.90;20.70;;;4.90;99.90;;;;;;5014370;28;20018;-47
2022/01/24 02:55:40;;;;;;;32.17;19.38;;;4.90;99.90;;;;;;5012692;28;20033;-48
2022/01/24 02:58:07;;;;;;;30.17;18.85;;;4.90;99.90;;;;;;5013352;28;20100;-47
2022/01/24 03:00:33;;;;;;;32.22;19.33;;;5.00;99.90;;;;;;5014269;28;20022;-48
2022/01/24 03:02:59;;;;;;;33.35;19.95;;;4.90;99.90;;;;;;5013685;28;20029;-48
2022/01/24 03:05:25;;;;;;;34.33;19.30;;;4.90;99.90;;;;;;5013849;28;20025;-47
2022/01/24 03:07:51;;;;;;;31.02;17.95;;;5.00;99.90;;;;;;5013485;28;20069;-47
2022/01/24 03:10:51;;;;;;;34.20;19.58;;;5.00;99.90;;;;;;5013806;28;20030;-47
2022/01/24 03:13:18;;;;;;;33.28;18.92;;;5.00;99.90;;;;;;5009545;28;20472;-47
2022/01/24 03:15:46;;;;;;;31.20;18.45;;;5.00;99.90;;;;;;5013598;28;20022;-47
2022/01/24 03:18:12;;;;;;;33.10;20.23;;;5.00;99.90;;;;;;5013460;28;20125;-47
2022/01/24 03:20:37;;;;;;;31.10;18.63;;;5.00;99.90;;;;;;5012739;28;20164;-48
2022/01/24 03:23:04;;;;;;;29.58;18.63;;;4.90;99.90;;;;;;5013264;28;20034;-47
2022/01/24 03:25:29;;;;;;;31.67;18.05;;;4.80;99.90;;;;;;5011898;28;20054;-47
2022/01/24 03:27:55;;;;;;;29.17;17.27;;;4.80;99.90;;;;;;5013101;28;20511;-47
2022/01/24 03:30:22;;;;;;;29.90;17.40;;;4.80;99.90;;;;;;5012871;28;20076;-47
2022/01/24 03:32:48;;;;;;;32.22;17.40;;;4.80;99.90;;;;;;5013760;28;20033;-47
2022/01/24 03:35:14;;;;;;;30.52;17.25;;;4.70;99.90;;;;;;5013266;28;20415;-47
2022/01/24 03:37:39;;;;;;;30.23;16.90;;;4.70;99.90;;;;;;5012768;28;20072;-47
2022/01/24 03:40:06;;;;;;;29.30;17.20;;;4.70;99.90;;;;;;5013146;28;20084;-47
2022/01/24 03:42:32;;;;;;;27.90;15.95;;;4.60;99.90;;;;;;5013237;28;20033;-47
2022/01/24 03:45:02;;;;;;;29.70;16.75;;;4.50;99.90;;;;;;5013174;28;20033;-47
2022/01/24 03:50:16;;;;;;;26.85;15.35;;;4.60;99.90;;;;;;4972293;28;20092;-47
2022/01/24 03:52:45;;;;;;;34.25;18.02;;;4.70;99.90;;;;;;5012516;28;20049;-47
2022/01/24 03:55:11;;;;;;;31.02;17.55;;;4.70;99.90;;;;;;5012564;28;20048;-47
2022/01/24 03:57:38;;;;;;;28.45;16.95;;;4.70;99.90;;;;;;5012602;28;20053;-47
2022/01/24 04:00:07;;;;;;;34.55;17.13;;;4.80;99.90;;;;;;5012380;28;20494;-47
2022/01/24 04:02:32;;;;;;;32.20;17.55;;;4.90;99.90;;;;;;5012203;28;20507;-47
2022/01/24 04:04:58;;;;;;;26.17;16.20;;;4.90;99.90;;;;;;5012582;28;20097;-48
2022/01/24 04:07:24;;;;;;;27.67;16.48;;;5.00;99.90;;;;;;5011469;28;20526;-48
2022/01/24 04:09:50;;;;;;;30.05;18.25;;;5.10;99.90;;;;;;5012058;28;20030;-48
2022/01/24 04:12:16;;;;;;;30.80;17.17;;;5.10;99.90;;;;;;5012360;28;20355;-47
2022/01/24 04:17:38;;;;;;;29.15;17.13;;;5.30;99.90;;;;;;4971869;28;20033;-47
2022/01/24 04:22:51;;;;;;;30.23;17.35;;;5.40;99.90;;;;;;5012348;28;20095;-48
2022/01/24 04:25:22;;;;;;;33.05;18.83;;;5.40;99.90;;;;;;5012638;28;20373;-47
2022/01/24 04:27:48;;;;;;;29.48;17.45;;;5.40;99.90;;;;;;5012031;28;20045;-48
2022/01/24 04:30:14;;;;;;;30.05;17.55;;;5.30;99.90;;;;;;5012081;28;20036;-47
2022/01/24 04:32:40;;;;;;;28.38;17.48;;;5.20;99.90;;;;;;5011310;28;20029;-47
2022/01/24 04:35:06;;;;;;;31.95;18.63;;;5.00;99.90;;;;;;5012750;28;20024;-47
2022/01/24 04:37:31;;;;;;;39.83;21.90;;;4.90;99.90;;;;;;5011878;28;20499;-47
2022/01/24 04:39:57;;;;;;;31.58;18.02;;;4.80;99.90;;;;;;5010332;28;20065;-47
2022/01/24 04:42:32;;;;;;;29.67;17.95;;;4.70;99.90;;;;;;5011989;28;20050;-48
2022/01/24 04:45:58;;;;;;;33.40;18.50;;;4.50;99.90;;;;;;5012354;28;20029;-47
2022/01/24 04:51:26;;;;;;;31.73;17.48;;;4.30;99.90;;;;;;5011895;28;20123;-47
2022/01/24 04:55:59;;;;;;;35.17;19.30;;;4.00;99.90;;;;;;4971338;28;20033;-47
2022/01/24 04:58:25;;;;;;;35.55;19.95;;;4.10;99.90;;;;;;5009750;28;20108;-47
2022/01/24 05:00:51;;;;;;;33.00;18.23;;;4.20;99.90;;;;;;5011384;28;20053;-47
2022/01/24 05:03:16;;;;;;;44.78;19.95;;;4.20;99.90;;;;;;5011538;28;20423;-47
2022/01/24 05:05:42;;;;;;;36.90;20.05;;;4.30;99.90;;;;;;5011556;28;20034;-47
2022/01/24 05:08:09;;;;;;;34.60;19.23;;;4.20;99.90;;;;;;5011260;28;20342;-47
2022/01/24 05:10:51;;;;;;;38.75;19.98;;;4.00;99.90;;;;;;5011643;28;20033;-48
2022/01/24 05:23:25;;;;;;;33.53;18.10;;;3.40;99.90;;;;;;5011124;28;20033;-47
2022/01/24 05:24:20;;;;;;;34.95;18.95;;;3.30;99.90;;;;;;5010623;28;20402;-47
2022/01/24 05:26:45;;;;;;;31.83;18.42;;;3.10;99.90;;;;;;5011214;28;20434;-47
2022/01/24 05:29:11;;;;;;;37.53;19.55;;;2.90;99.90;;;;;;5010702;28;20049;-47
2022/01/24 05:31:36;;;;;;;36.13;19.63;;;2.80;99.90;;;;;;5011121;28;20057;-47
2022/01/24 05:34:02;;;;;;;42.25;20.80;;;2.90;99.90;;;;;;5011337;28;20450;-47
2022/01/24 05:36:28;;;;;;;38.83;20.83;;;2.90;99.90;;;;;;5009505;28;20026;-47
2022/01/24 05:38:53;;;;;;;41.45;20.63;;;2.80;99.90;;;;;;5011321;28;20034;-47
2022/01/24 05:41:19;;;;;;;43.08;21.77;;;2.80;99.90;;;;;;5011190;28;20650;-48
2022/01/24 05:43:44;;;;;;;37.55;20.38;;;2.70;99.90;;;;;;5015814;28;20028;-48
2022/01/24 05:46:10;;;;;;;41.10;21.33;;;2.70;99.90;;;;;;5017424;28;20026;-48
2022/01/24 05:48:36;;;;;;;41.38;21.25;;;2.70;99.90;;;;;;5017591;28;20032;-47
2022/01/24 05:51:02;;;;;;;41.35;21.02;;;2.70;99.90;;;;;;5017249;28;20028;-48
2022/01/24 05:53:27;;;;;;;41.35;22.08;;;2.60;99.90;;;;;;5017586;28;20080;-47
2022/01/24 05:55:54;;;;;;;40.72;21.70;;;2.70;99.90;;;;;;5017470;28;20026;-47
2022/01/24 05:58:20;;;;;;;41.25;21.90;;;2.60;99.90;;;;;;5017187;28;20029;-47
2022/01/24 06:00:46;;;;;;;40.53;21.27;;;2.50;99.90;;;;;;5016275;28;20022;-47
2022/01/24 06:03:11;;;;;;;41.33;21.90;;;2.40;99.90;;;;;;5017084;28;20371;-47
2022/01/24 06:05:37;;;;;;;42.40;20.80;;;2.40;99.90;;;;;;5017726;28;20084;-47
2022/01/24 06:08:03;;;;;;;40.55;21.30;;;2.30;99.90;;;;;;5016859;28;20495;-47
2022/01/24 06:10:29;;;;;;;40.92;22.15;;;2.30;99.90;;;;;;5017135;28;20577;-47
2022/01/24 06:12:55;;;;;;;42.78;22.35;;;2.30;99.90;;;;;;5017104;28;20084;-47
2022/01/24 06:15:21;;;;;;;48.60;23.38;;;2.20;99.90;;;;;;5017164;28;20030;-47
2022/01/24 06:17:47;;;;;;;43.03;23.02;;;2.20;99.90;;;;;;5017612;28;20042;-47
2022/01/24 06:20:12;;;;;;;43.42;22.08;;;2.20;99.90;;;;;;5017092;28;20037;-47
2022/01/24 06:22:39;;;;;;;50.53;25.05;;;2.20;99.90;;;;;;5017220;28;20025;-49
2022/01/24 06:25:06;;;;;;;51.17;24.15;;;2.20;99.90;;;;;;5017464;28;20026;-47
2022/01/24 06:27:32;;;;;;;50.60;24.52;;;2.20;99.90;;;;;;5017280;28;20092;-47
2022/01/24 06:29:58;;;;;;;49.63;24.88;;;2.10;99.90;;;;;;5015838;28;20149;-47
2022/01/24 06:32:23;;;;;;;51.42;24.13;;;2.20;99.90;;;;;;5017419;28;20229;-47
2022/01/24 06:34:49;;;;;;;46.28;24.10;;;2.20;99.90;;;;;;5017840;28;20036;-48
2022/01/24 06:37:15;;;;;;;51.28;25.05;;;2.20;99.90;;;;;;5017317;28;20507;-47
2022/01/24 06:39:40;;;;;;;45.22;23.00;;;2.10;99.90;;;;;;5018979;28;20153;-47
2022/01/24 06:42:15;;;;;;;49.05;25.08;;;2.10;99.90;;;;;;5025743;28;20036;-47
2022/01/24 06:44:41;;;;;;;55.90;25.65;;;2.10;99.90;;;;;;5027179;28;20026;-47
2022/01/24 06:47:07;;;;;;;47.67;25.30;;;2.20;99.90;;;;;;5026673;28;20026;-47
2022/01/24 06:49:35;;;;;;;48.40;25.58;;;2.20;99.90;;;;;;5020761;28;20045;-47
2022/01/24 06:52:01;;;;;;;46.47;24.13;;;2.30;99.90;;;;;;5029528;28;20021;-47
2022/01/24 06:54:26;;;;;;;51.85;24.90;;;2.30;99.90;;;;;;5018579;28;20038;-47
2022/01/24 06:56:52;;;;;;;47.45;24.63;;;2.20;99.90;;;;;;5017757;28;20026;-47
2022/01/24 06:59:18;;;;;;;50.78;25.80;;;2.20;99.90;;;;;;5017410;28;20026;-47
2022/01/24 07:01:43;;;;;;;49.22;24.63;;;2.20;99.90;;;;;;5014812;28;20025;-47
2022/01/24 07:04:09;;;;;;;52.53;24.73;;;2.30;99.90;;;;;;5020109;28;20022;-47
2022/01/24 07:06:34;;;;;;;52.97;25.10;;;2.30;99.90;;;;;;5020878;28;20045;-47
2022/01/24 07:09:02;;;;;;;53.53;25.40;;;2.20;99.90;;;;;;5016013;28;20044;-47
2022/01/24 07:11:27;;;;;;;46.65;24.73;;;2.20;99.90;;;;;;5014110;28;20022;-47
2022/01/24 07:13:53;;;;;;;47.10;24.73;;;2.20;99.90;;;;;;5022505;28;20029;-47
2022/01/24 07:16:19;;;;;;;47.78;24.75;;;2.10;99.90;;;;;;5022525;28;20033;-47
2022/01/24 07:19:03;;;;;;;47.20;24.27;;;2.00;99.90;;;;;;5011690;28;20395;-47
2022/01/24 07:21:29;;;;;;;51.83;25.63;;;2.00;99.90;;;;;;5019228;28;20399;-47
2022/01/24 07:23:55;;;;;;;52.22;25.45;;;2.00;99.90;;;;;;5014323;28;20471;-47
2022/01/24 07:26:20;;;;;;;50.38;25.25;;;2.00;99.90;;;;;;5019234;28;20029;-47
2022/01/24 07:28:46;;;;;;;55.40;27.15;;;2.00;99.90;;;;;;5021274;28;20049;-47
2022/01/24 07:31:12;;;;;;;81.18;36.53;;;2.10;99.90;;;;;;5010170;28;20041;-47
2022/01/24 07:33:40;;;;;;;109.05;51.28;;;2.10;99.90;;;;;;5009679;28;20033;-47
2022/01/24 07:36:06;;;;;;;86.95;39.72;;;2.20;99.90;;;;;;5014832;28;20447;-47
2022/01/24 07:38:32;;;;;;;66.72;34.13;;;2.30;99.90;;;;;;5011735;28;20030;-47
2022/01/24 07:41:00;;;;;;;78.15;35.50;;;2.20;99.90;;;;;;5010321;28;20108;-47
2022/01/24 07:43:25;;;;;;;81.15;40.03;;;2.00;99.90;;;;;;5014434;28;20054;-47
2022/01/24 07:45:51;;;;;;;95.50;43.72;;;2.00;99.90;;;;;;5014688;28;20522;-47
2022/01/24 07:48:18;;;;;;;94.20;43.58;;;2.00;99.90;;;;;;5012805;28;20091;-47
2022/01/24 07:50:46;;;;;;;94.78;44.42;;;2.10;99.90;;;;;;5017788;28;20034;-47
2022/01/24 07:53:14;;;;;;;84.65;40.88;;;2.10;99.90;;;;;;5013536;28;20026;-47
2022/01/24 07:55:40;;;;;;;86.88;42.42;;;2.10;99.90;;;;;;5016933;28;20037;-47
2022/01/24 07:58:06;;;;;;;91.78;43.17;;;2.20;99.90;;;;;;5014233;28;20087;-47
2022/01/24 08:00:33;;;;;;;85.38;41.65;;;2.20;99.90;;;;;;5014946;28;20037;-47
2022/01/24 08:02:59;;;;;;;85.28;40.13;;;2.20;99.90;;;;;;5016035;28;20033;-47
2022/01/24 08:05:25;;;;;;;73.05;37.47;;;2.30;99.90;;;;;;5018839;28;20108;-47
2022/01/24 08:07:51;;;;;;;72.68;37.05;;;2.40;99.90;;;;;;5018863;28;20032;-47
2022/01/24 08:10:17;;;;;;;66.45;32.22;;;2.50;99.90;;;;;;5009134;28;20029;-47
2022/01/24 08:12:44;;;;;;;68.32;33.45;;;2.60;99.90;;;;;;5013204;28;20034;-47
2022/01/24 08:15:14;;;;;;;65.85;32.50;;;2.70;99.90;;;;;;5009726;28;20025;-47
2022/01/24 08:17:40;;;;;;;68.88;30.77;;;2.80;99.90;;;;;;5016067;28;20493;-47
2022/01/24 08:20:06;;;;;;;68.50;34.92;;;2.90;99.90;;;;;;5014216;28;20030;-47
2022/01/24 08:22:32;;;;;;;71.10;35.85;;;2.90;99.90;;;;;;5014169;28;20036;-47
2022/01/24 08:24:58;;;;;;;63.38;33.30;;;3.00;99.90;;;;;;5013007;28;20021;-47
2022/01/24 08:27:25;;;;;;;63.85;32.70;;;3.20;99.90;;;;;;5016029;28;20040;-47
2022/01/24 08:29:51;;;;;;;62.42;32.47;;;3.20;99.90;;;;;;5017250;28;20049;-48
2022/01/24 08:32:17;;;;;;;61.17;30.92;;;3.20;99.90;;;;;;5016327;28;20029;-47
2022/01/24 08:34:43;;;;;;;51.90;29.35;;;3.20;99.90;;;;;;5017707;28;20034;-47
2022/01/24 08:37:09;;;;;;;61.72;30.52;;;3.40;99.90;;;;;;5020175;28;20026;-47
2022/01/24 08:39:35;;;;;;;53.15;27.38;;;3.60;99.90;;;;;;5017043;28;20042;-47
2022/01/24 08:42:31;;;;;;;54.63;28.75;;;3.70;99.90;;;;;;5018302;28;20151;-47
2022/01/24 08:47:23;;;;;;;44.30;24.48;;;4.60;99.90;;;;;;5017726;28;20021;-48
2022/01/24 08:49:49;;;;;;;44.30;23.95;;;5.40;99.90;;;;;;5019319;28;20060;-47
2022/01/24 08:52:14;;;;;;;44.22;24.45;;;5.90;99.90;;;;;;5018853;28;20201;-48
2022/01/24 08:54:40;;;;;;;38.30;22.13;;;6.60;99.90;;;;;;5016324;28;20117;-48
2022/01/24 08:57:07;;;;;;;36.63;20.95;;;7.10;99.90;;;;;;5015421;28;20124;-48
2022/01/24 08:59:33;;;;;;;31.95;20.48;;;7.60;99.90;;;;;;5013797;28;20037;-47
2022/01/24 09:02:00;;;;;;;45.13;21.05;;;7.90;99.90;;;;;;5017469;28;20041;-48
2022/01/24 09:04:25;;;;;;;35.78;20.63;;;8.30;99.90;;;;;;5014557;28;20025;-48
2022/01/24 09:06:52;;;;;;;34.60;20.25;;;8.50;99.90;;;;;;5020823;28;20045;-48
2022/01/24 09:09:19;;;;;;;30.25;19.77;;;8.50;99.90;;;;;;5014868;28;20581;-48
2022/01/24 09:11:45;;;;;;;33.83;20.80;;;8.90;99.90;;;;;;5012756;28;20029;-48
2022/01/24 09:14:11;;;;;;;32.15;19.55;;;9.60;99.90;;;;;;5016421;28;20498;-48
2022/01/24 09:16:38;;;;;;;35.25;20.60;;;10.30;99.90;;;;;;5019431;28;20031;-47
2022/01/24 09:19:05;;;;;;;35.30;20.70;;;10.50;99.90;;;;;;5016065;28;20034;-47
2022/01/24 09:21:32;;;;;;;32.55;19.45;;;10.30;99.90;;;;;;5009540;28;20029;-47
2022/01/24 09:23:57;;;;;;;30.95;19.88;;;10.00;99.90;;;;;;5014514;28;20033;-48
2022/01/24 09:26:23;;;;;;;34.25;19.77;;;9.90;99.90;;;;;;5016517;28;20037;-48
2022/01/24 09:28:49;;;;;;;34.17;20.75;;;10.20;99.90;;;;;;5014931;28;20064;-48
2022/01/24 09:31:15;;;;;;;28.05;19.10;;;10.50;99.90;;;;;;5014290;28;20025;-48
2022/01/24 09:33:40;;;;;;;36.72;20.40;;;11.00;99.90;;;;;;5011015;28;20614;-48
2022/01/24 09:36:06;;;;;;;36.67;20.77;;;11.10;99.90;;;;;;5012123;28;20062;-48
2022/01/24 09:38:34;;;;;;;30.75;21.02;;;11.30;99.90;;;;;;5011944;28;20029;-48
2022/01/24 09:41:03;;;;;;;32.70;21.23;;;11.30;99.90;;;;;;5016667;28;20434;-48
2022/01/24 09:43:29;;;;;;;33.55;21.95;;;11.60;99.90;;;;;;5014441;28;20506;-48
2022/01/24 09:45:56;;;;;;;36.22;22.08;;;12.00;99.90;;;;;;5015660;28;20146;-48
2022/01/24 09:48:22;;;;;;;31.65;21.70;;;11.90;99.90;;;;;;5014795;28;20494;-48
2022/01/24 09:50:51;;;;;;;31.05;20.90;;;12.10;99.90;;;;;;5011692;28;20040;-48
2022/01/24 09:53:17;;;;;;;29.73;20.90;;;12.00;99.90;;;;;;5013428;28;20080;-48
2022/01/24 09:55:43;;;;;;;29.58;20.65;;;11.70;99.90;;;;;;5016479;28;20034;-48
2022/01/24 09:58:09;;;;;;;30.92;20.80;;;12.30;99.90;;;;;;5012948;28;20036;-48
2022/01/24 10:00:35;;;;;;;32.40;22.00;;;12.30;99.90;;;;;;5015070;28;20057;-48
2022/01/24 10:03:00;;;;;;;32.63;21.38;;;12.70;99.90;;;;;;5016691;28;20072;-48
2022/01/24 10:05:30;;;;;;;31.17;21.25;;;12.60;99.90;;;;;;5012323;28;20037;-48
2022/01/24 10:07:58;;;;;;;32.05;21.42;;;12.10;99.90;;;;;;5014214;28;20076;-48
2022/01/24 10:10:46;;;;;;;30.95;20.10;;;11.30;99.90;;;;;;5012325;28;20558;-48
2022/01/24 10:16:30;;;;;;;34.30;21.02;;;10.00;99.90;;;;;;5008184;28;20091;-48
2022/01/24 10:18:59;;;;;;;32.72;20.52;;;9.90;99.90;;;;;;5010744;28;20411;-48
2022/01/24 10:21:25;;;;;;;34.83;20.92;;;10.00;99.90;;;;;;5013719;28;20022;-47
2022/01/24 10:23:51;;;;;;;35.67;22.17;;;10.10;99.90;;;;;;5013738;28;20084;-47
2022/01/24 10:26:18;;;;;;;31.48;21.00;;;9.80;99.90;;;;;;5013073;28;20490;-48
2022/01/24 10:28:45;;;;;;;36.53;20.85;;;9.80;99.90;;;;;;5013717;28;20040;-49
2022/01/24 10:31:16;;;;;;;36.60;21.15;;;10.50;99.90;;;;;;5014127;28;20145;-48
2022/01/24 10:34:13;;;;;;;40.90;20.67;;;10.80;99.90;;;;;;5018457;28;20126;-48
2022/01/24 10:36:50;;;;;;;32.53;21.35;;;11.00;99.90;;;;;;5015979;28;20647;-48
2022/01/24 10:45:13;;;;;;;36.03;20.60;;;11.00;99.90;;;;;;5015773;28;20534;-48
2022/01/24 10:47:45;;;;;;;29.90;20.88;;;11.30;99.90;;;;;;5015514;28;20021;-48
2022/01/24 10:50:28;;;;;;;32.78;21.20;;;11.70;99.90;;;;;;5024993;28;20112;-48
2022/01/24 10:52:55;;;;;;;35.05;22.00;;;11.30;99.90;;;;;;5021073;28;20030;-48
2022/01/24 10:55:27;;;;;;;33.25;22.33;;;10.70;99.90;;;;;;5020418;28;20033;-48
2022/01/24 10:58:08;;;;;;;37.13;22.52;;;10.60;99.90;;;;;;5020991;28;20740;-48
2022/01/24 11:00:35;;;;;;;33.70;22.20;;;10.10;99.90;;;;;;5018453;28;20416;-49
2022/01/24 11:03:06;;;;;;;37.95;22.52;;;10.40;99.90;;;;;;5017028;28;20545;-49
2022/01/24 11:05:37;;;;;;;45.28;22.67;;;10.70;99.90;;;;;;5019492;28;20491;-48
2022/01/24 11:08:04;;;;;;;35.00;22.30;;;11.40;99.90;;;;;;5018039;28;20034;-49
2022/01/24 11:11:02;;;;;;;44.58;22.55;;;11.10;99.90;;;;;;5018142;28;20038;-48
2022/01/24 11:13:31;;;;;;;35.92;22.67;;;11.40;99.90;;;;;;5023856;28;20042;-49
2022/01/24 11:16:00;;;;;;;39.90;23.20;;;12.00;99.90;;;;;;5022238;28;20371;-49
2022/01/24 11:18:26;;;;;;;45.35;23.83;;;12.20;99.90;;;;;;5013205;28;20038;-48
2022/01/24 11:21:01;;;;;;;42.00;23.10;;;12.50;99.90;;;;;;5013587;28;20108;-49
2022/01/24 11:23:28;;;;;;;45.17;24.02;;;12.90;99.90;;;;;;5013920;28;20034;-48
2022/01/24 11:25:59;;;;;;;37.70;23.75;;;13.00;99.90;;;;;;5017375;28;20029;-48
2022/01/24 11:28:25;;;;;;;38.92;23.50;;;12.60;99.90;;;;;;5017072;28;20084;-47
2022/01/24 11:31:06;;;;;;;70.03;25.50;;;12.90;99.90;;;;;;5018119;28;20185;-48
2022/01/24 11:33:33;;;;;;;33.88;22.95;;;13.20;99.90;;;;;;5016980;28;20028;-49
2022/01/24 11:36:07;;;;;;;35.30;23.73;;;13.30;99.90;;;;;;5020384;28;20025;-49
2022/01/24 11:38:44;;;;;;;37.33;23.45;;;13.10;99.90;;;;;;5017328;28;20033;-52
2022/01/24 11:41:24;;;;;;;36.05;24.42;;;12.80;99.90;;;;;;5016381;28;20050;-53
2022/01/24 11:43:55;;;;;;;34.42;23.48;;;13.60;99.90;;;;;;5017022;28;20137;-50
2022/01/24 11:46:37;;;;;;;35.28;23.38;;;13.70;99.90;;;;;;5013314;28;20026;-47
2022/01/24 11:49:26;;;;;;;33.67;23.45;;;13.90;99.90;;;;;;5014597;28;20471;-49
2022/01/24 11:52:14;;;;;;;39.42;22.17;;;14.60;98.90;;;;;;5011225;28;20121;-50
2022/01/24 11:54:44;;;;;;;41.33;22.80;;;15.00;96.70;;;;;;5017552;28;20040;-50
2022/01/24 11:57:22;;;;;;;36.88;23.95;;;14.40;98.10;;;;;;5014760;28;20022;-50
2022/01/24 12:00:05;;;;;;;37.90;24.08;;;14.90;97.20;;;;;;5011581;28;20033;-50
2022/01/24 12:02:33;;;;;;;70.88;25.30;;;15.70;94.30;;;;;;5015909;28;20413;-49
2022/01/24 12:05:25;;;;;;;43.47;22.85;;;15.80;93.20;;;;;;5015236;28;20034;-50
2022/01/24 12:07:59;;;;;;;42.05;23.83;;;15.80;93.60;;;;;;5021817;28;20026;-50
2022/01/24 12:10:36;;;;;;;38.38;24.25;;;15.80;92.80;;;;;;5014926;28;20038;-50
2022/01/24 12:13:27;;;;;;;33.95;22.65;;;15.50;93.60;;;;;;5011837;28;20037;-50
2022/01/24 12:15:57;;;;;;;70.68;24.83;;;14.70;95.60;;;;;;5020577;28;20037;-50
2022/01/24 12:18:26;;;;;;;37.72;22.77;;;15.40;94.70;;;;;;5013009;28;20033;-50
2022/01/24 12:21:16;;;;;;;47.83;24.08;;;16.60;91.40;;;;;;5017338;28;20041;-50
2022/01/24 12:23:52;;;;;;;41.17;24.45;;;15.30;94.40;;;;;;5005867;28;20044;-50
2022/01/24 12:26:18;;;;;;;38.42;24.35;;;14.80;94.90;;;;;;5018706;28;20034;-50
2022/01/24 12:28:46;;;;;;;39.03;23.45;;;15.10;94.50;;;;;;5021120;28;20067;-50
2022/01/24 12:31:35;;;;;;;58.67;24.70;;;15.50;94.00;;;;;;5018359;28;20045;-50
2022/01/24 12:34:08;;;;;;;33.25;22.90;;;15.60;93.60;;;;;;5018965;28;20105;-50
2022/01/24 12:36:49;;;;;;;36.03;24.25;;;15.80;92.90;;;;;;5019368;28;20031;-50
2022/01/24 12:39:38;;;;;;;50.75;24.30;;;15.80;92.60;;;;;;5018339;28;20328;-50
2022/01/24 12:42:17;;;;;;;51.70;24.17;;;16.40;91.50;;;;;;5013302;28;20095;-50
2022/01/24 12:47:13;;;;;;;123.18;29.15;;;15.40;93.40;;;;;;5013991;28;20044;-50
2022/01/24 12:49:40;;;;;;;36.20;22.48;;;15.40;93.00;;;;;;5018938;28;20037;-50
2022/01/24 12:52:08;;;;;;;37.58;24.02;;;15.50;92.60;;;;;;5022709;28;20049;-50
2022/01/24 12:54:37;;;;;;;33.40;22.05;;;15.50;92.10;;;;;;5012475;28;20535;-50
2022/01/24 12:57:08;;;;;;;30.92;21.20;;;15.60;91.80;;;;;;5011726;28;20084;-50
2022/01/24 12:59:35;;;;;;;40.08;19.20;;;15.40;91.10;;;;;;5011091;28;20030;-49
2022/01/24 13:02:04;;;;;;;39.80;22.83;;;14.70;93.00;;;;;;5013007;28;20029;-50
2022/01/24 13:04:37;;;;;;;35.63;22.33;;;15.20;92.60;;;;;;5020765;28;20088;-50
2022/01/24 13:07:04;;;;;;;90.70;27.90;;;14.90;93.90;;;;;;5011524;28;20395;-49
2022/01/24 13:09:30;;;;;;;37.47;23.58;;;15.00;93.30;;;;;;5015246;28;20036;-50
2022/01/24 13:12:04;;;;;;;35.08;23.20;;;16.00;91.50;;;;;;5014485;28;20030;-50
2022/01/24 13:14:42;;;;;;;35.78;23.08;;;16.00;91.60;;;;;;5017179;28;20037;-50
2022/01/24 13:22:57;;;;;;;33.28;21.50;;;15.90;91.80;;;;;;5009923;28;20516;-50
2022/01/24 13:25:27;;;;;;;34.78;22.55;;;16.00;91.20;;;;;;5005902;28;20514;-50
2022/01/24 13:28:05;;;;;;;35.05;22.40;;;16.40;90.20;;;;;;5008784;28;20088;-50
2022/01/24 13:30:43;;;;;;;63.05;24.70;;;16.80;89.20;;;;;;5009365;28;20068;-50
2022/01/24 13:33:12;;;;;;;33.67;22.02;;;16.70;88.40;;;;;;5012685;28;20033;-50
2022/01/24 13:35:40;;;;;;;45.45;22.95;;;16.60;87.80;;;;;;5010868;28;20034;-50
2022/01/24 13:38:09;;;;;;;33.33;23.15;;;16.30;87.20;;;;;;5005233;28;20112;-49
2022/01/24 13:40:38;;;;;;;42.78;23.60;;;15.70;88.60;;;;;;5011024;28;20034;-50
2022/01/24 13:43:05;;;;;;;37.63;22.80;;;15.40;90.90;;;;;;5012685;28;20120;-50
2022/01/24 13:45:40;;;;;;;35.42;22.80;;;15.40;91.20;;;;;;5012135;28;20021;-50
2022/01/24 13:48:16;;;;;;;41.50;24.02;;;15.20;90.90;;;;;;5009883;28;20104;-50
2022/01/24 13:50:57;;;;;;;41.35;24.30;;;14.60;91.50;;;;;;5009440;28;20403;-50
2022/01/24 13:53:29;;;;;;;35.40;23.25;;;13.30;95.40;;;;;;5011513;28;20036;-50
2022/01/24 13:55:55;;;;;;;39.22;23.60;;;12.50;98.40;;;;;;5024023;28;20026;-49
2022/01/24 13:58:25;;;;;;;48.10;25.85;;;11.60;99.90;;;;;;5015079;28;20099;-49
2022/01/24 14:01:01;;;;;;;41.95;24.45;;;11.20;99.90;;;;;;5019629;28;20120;-49
2022/01/24 14:03:26;;;;;;;38.65;24.67;;;10.80;99.90;;;;;;5012003;28;20030;-49
2022/01/24 14:06:13;;;;;;;46.67;23.80;;;10.60;99.90;;;;;;5021579;28;20491;-48
2022/01/24 14:08:38;;;;;;;57.13;24.25;;;10.80;99.90;;;;;;5019262;28;20018;-49
2022/01/24 14:11:16;;;;;;;39.90;24.02;;;11.00;99.90;;;;;;5017025;28;20038;-49
2022/01/24 14:13:53;;;;;;;42.92;23.98;;;11.20;99.90;;;;;;5016506;28;20040;-49
2022/01/24 14:16:35;;;;;;;61.83;24.90;;;11.20;99.90;;;;;;5002370;28;20867;-49
2022/01/24 14:19:02;;;;;;;72.82;27.83;;;11.00;99.90;;;;;;5010904;28;20022;-49
2022/01/24 14:21:28;;;;;;;48.42;23.73;;;10.50;99.90;;;;;;5014846;28;20045;-49
2022/01/24 14:23:55;;;;;;;40.25;23.58;;;10.30;99.90;;;;;;5010090;28;20040;-49
2022/01/24 14:26:27;;;;;;;48.70;22.98;;;10.20;99.90;;;;;;5012030;28;20153;-49
2022/01/24 14:29:08;;;;;;;45.33;23.13;;;10.40;99.90;;;;;;5021442;28;20041;-49